createdAt,value
2023-05-05T00:03:28.134Z,101186.20
2023-05-05T00:08:31.538Z,101183.20
2023-05-05T00:13:34.381Z,101187.80
2023-05-05T00:18:37.557Z,101191.80
2023-05-05T00:23:40.477Z,101195.00
2023-05-05T00:28:43.777Z,101193.00
2023-05-05T00:33:46.743Z,101187.60
2023-05-05T00:38:49.554Z,101189.60
2023-05-05T00:43:52.697Z,101192.20
2023-05-05T00:48:56.666Z,101186.20
2023-05-05T00:53:59.632Z,101183.00
2023-05-05T00:59:02.791Z,101179.80
2023-05-05T01:04:05.675Z,101173.00
2023-05-05T01:09:36.682Z,101173.00
2023-05-05T01:14:45.228Z,101175.00
2023-05-05T01:19:59.593Z,101171.20
2023-05-05T01:25:33.737Z,101175.40
2023-05-05T01:31:09.411Z,101174.00
2023-05-05T01:36:22.970Z,101171.40
2023-05-05T01:41:33.544Z,101168.40
2023-05-05T01:46:37.524Z,101170.60
2023-05-05T01:51:42.325Z,101171.00
2023-05-05T01:56:47.627Z,101172.20
2023-05-05T02:01:51.638Z,101168.00
2023-05-05T02:06:56.932Z,101171.60
2023-05-05T02:12:02.319Z,101171.00
2023-05-05T02:17:05.290Z,101167.80
2023-05-05T02:22:08.329Z,101169.20
2023-05-05T02:27:12.166Z,101168.40
2023-05-05T02:32:27.813Z,101168.40
2023-05-05T02:37:33.707Z,101168.20
2023-05-05T02:42:41.090Z,101166.60
2023-05-05T02:47:44.154Z,101175.80
2023-05-05T02:52:47.468Z,101175.00
2023-05-05T02:58:00.631Z,101177.40
2023-05-05T03:03:37.799Z,101182.40
2023-05-05T03:08:54.912Z,101178.40
2023-05-05T03:14:18.353Z,101179.80
2023-05-05T03:19:21.906Z,101178.20
2023-05-05T03:24:24.747Z,101189.60
2023-05-05T03:29:29.576Z,101200.20
2023-05-05T03:34:32.457Z,101198.40
2023-05-05T03:39:35.225Z,101200.40
2023-05-05T03:44:38.102Z,101202.60
2023-05-05T03:49:41.010Z,101209.20
2023-05-05T03:54:46.171Z,101212.60
2023-05-05T03:59:49.050Z,101215.60
2023-05-05T04:04:52.049Z,101217.80
2023-05-05T04:09:54.931Z,101225.40
2023-05-05T04:14:57.740Z,101231.00
2023-05-05T04:20:00.786Z,101235.60
2023-05-05T04:25:04.032Z,101239.20
2023-05-05T04:30:08.196Z,101242.20
2023-05-05T04:35:11.390Z,101249.40
2023-05-05T04:40:14.251Z,101244.80
2023-05-05T04:45:17.153Z,101242.20
2023-05-05T04:50:20.448Z,101247.40
2023-05-05T04:55:23.348Z,101253.80
2023-05-05T05:00:26.504Z,101256.60
2023-05-05T05:05:29.310Z,101257.40
2023-05-05T05:10:32.475Z,101266.80
2023-05-05T05:15:38.298Z,101273.00
2023-05-05T05:20:41.163Z,101279.60
2023-05-05T05:25:44.539Z,101286.60
2023-05-05T05:30:47.569Z,101278.40
2023-05-05T05:35:50.441Z,101288.60
2023-05-05T05:40:54.646Z,101288.00
2023-05-05T05:45:57.699Z,101296.20
2023-05-05T05:51:02.400Z,101294.60
2023-05-05T05:56:06.030Z,101299.20
2023-05-05T06:01:09.130Z,101306.20
2023-05-05T06:06:12.293Z,101297.20
2023-05-05T06:11:15.391Z,101304.20
2023-05-05T06:16:18.562Z,101306.60
2023-05-05T06:21:21.652Z,101306.20
2023-05-05T06:26:24.618Z,101314.40
2023-05-05T06:31:27.464Z,101316.20
2023-05-05T06:36:30.604Z,101305.80
2023-05-05T06:41:34.254Z,101309.40
2023-05-05T06:46:38.169Z,101314.80
2023-05-05T06:51:42.950Z,101312.80
2023-05-05T06:56:47.021Z,101314.40
2023-05-05T07:01:52.213Z,101315.60
2023-05-05T07:06:56.676Z,101316.80
2023-05-05T07:11:59.689Z,101321.60
2023-05-05T07:17:02.672Z,101321.60
2023-05-05T07:22:05.586Z,101316.80
2023-05-05T07:27:08.878Z,101313.60
2023-05-05T07:32:13.652Z,101315.20
2023-05-05T07:37:17.116Z,101319.00
2023-05-05T07:42:21.538Z,101323.80
2023-05-05T07:47:26.560Z,101330.20
2023-05-05T07:52:44.112Z,101330.40
2023-05-05T07:57:49.907Z,101337.20
2023-05-05T08:02:53.013Z,101340.00
2023-05-05T08:07:56.181Z,101341.40
2023-05-05T08:12:59.213Z,101340.40
2023-05-05T08:18:02.486Z,101344.60
2023-05-05T08:23:05.421Z,101342.20
2023-05-05T08:28:08.375Z,101338.20
2023-05-05T08:33:11.845Z,101344.40
2023-05-05T08:38:15.134Z,101340.20
2023-05-05T08:43:24.426Z,101343.20
2023-05-05T08:48:32.214Z,101344.00
2023-05-05T08:53:53.188Z,101344.40
2023-05-05T08:58:57.331Z,101351.60
2023-05-05T09:04:00.584Z,101348.40
2023-05-05T09:09:03.996Z,101348.40
2023-05-05T09:19:28.559Z,101368.40
2023-05-05T09:24:31.428Z,101358.80
2023-05-05T09:29:34.516Z,101366.80
2023-05-05T09:34:37.732Z,101366.00
2023-05-05T09:39:54.600Z,101369.80
2023-05-05T09:44:59.606Z,101372.20
2023-05-05T09:50:04.244Z,101364.80
2023-05-05T09:55:18.007Z,101359.00
2023-05-05T10:00:21.403Z,101363.60
2023-05-05T10:05:26.474Z,101361.20
2023-05-05T10:10:32.308Z,101361.60
2023-05-05T10:15:35.928Z,101366.40
2023-05-05T10:20:39.154Z,101366.40
2023-05-05T10:25:53.786Z,101366.20
2023-05-05T10:31:00.604Z,101360.20
2023-05-05T10:36:06.691Z,101369.40
2023-05-05T10:41:11.723Z,101359.00
2023-05-05T10:46:15.485Z,101363.20
2023-05-05T10:51:40.597Z,101355.60
2023-05-05T10:56:44.108Z,101358.60
2023-05-05T11:01:47.126Z,101351.20
2023-05-05T11:07:08.488Z,101346.80
2023-05-05T11:12:13.902Z,101348.00
2023-05-05T11:17:47.497Z,101351.60
2023-05-05T11:23:02.884Z,101341.00
2023-05-05T11:28:16.747Z,101343.60
2023-05-05T11:33:40.995Z,101331.60
2023-05-05T11:39:02.796Z,101325.00
2023-05-05T11:44:11.236Z,101323.60
2023-05-05T11:49:36.484Z,101318.40
2023-05-05T11:54:48.172Z,101318.20
2023-05-05T12:00:04.957Z,101311.00
2023-05-05T12:05:08.296Z,101325.00
2023-05-05T12:10:11.953Z,101322.20
2023-05-05T12:15:14.926Z,101318.00
2023-05-05T12:20:17.867Z,101320.40
2023-05-05T12:25:21.752Z,101315.40
2023-05-05T12:30:24.815Z,101318.20
2023-05-05T12:35:28.210Z,101319.40
2023-05-05T12:40:49.641Z,101311.40
2023-05-05T12:46:03.038Z,101312.00
2023-05-05T12:51:23.643Z,101309.00
2023-05-05T12:56:52.865Z,101298.00
2023-05-05T13:01:58.258Z,101313.40
2023-05-05T13:07:14.176Z,101311.60
2023-05-05T13:12:21.721Z,101306.40
2023-05-05T13:17:25.757Z,101296.40
2023-05-05T13:22:29.001Z,101295.20
2023-05-05T13:27:32.155Z,101293.20
2023-05-05T13:32:35.748Z,101291.80
2023-05-05T13:37:38.956Z,101288.80
2023-05-05T13:42:41.788Z,101282.60
2023-05-05T13:47:45.223Z,101281.80
2023-05-05T13:52:48.976Z,101287.60
2023-05-05T13:57:52.639Z,101279.60
2023-05-05T14:02:55.593Z,101277.00
2023-05-05T14:08:00.078Z,101268.00
2023-05-05T14:13:04.884Z,101267.00
2023-05-05T14:18:09.113Z,101266.40
2023-05-05T14:23:13.575Z,101267.80
2023-05-05T14:28:19.122Z,101262.00
2023-05-05T14:33:22.358Z,101261.00
2023-05-05T14:38:29.996Z,101261.60
2023-05-05T14:43:34.712Z,101270.00
2023-05-05T14:48:38.580Z,101266.60
2023-05-05T14:53:42.074Z,101267.00
2023-05-05T14:58:47.686Z,101278.80
2023-05-05T15:03:54.532Z,101275.60
2023-05-05T15:08:58.925Z,101275.00
2023-05-05T15:14:04.332Z,101274.20
2023-05-05T15:19:09.308Z,101270.00
2023-05-05T15:24:14.406Z,101271.80
2023-05-05T15:29:17.701Z,101269.00
2023-05-05T15:34:20.964Z,101269.60
2023-05-05T15:39:23.834Z,101268.20
2023-05-05T15:44:28.764Z,101264.60
2023-05-05T15:49:32.947Z,101265.40
2023-05-05T15:54:35.968Z,101265.60
2023-05-05T15:59:38.846Z,101261.80
2023-05-05T16:04:41.679Z,101255.20
2023-05-05T16:09:44.600Z,101253.40
2023-05-05T16:14:47.844Z,101257.80
2023-05-05T16:19:50.945Z,101256.40
2023-05-05T16:24:53.814Z,101249.00
2023-05-05T16:29:58.516Z,101237.80
2023-05-05T16:35:02.690Z,101235.60
2023-05-05T16:40:06.827Z,101244.00
2023-05-05T16:45:10.723Z,101241.80
2023-05-05T16:50:13.745Z,101244.60
2023-05-05T16:55:16.850Z,101242.20
2023-05-05T17:00:20.260Z,101251.40
2023-05-05T17:05:23.869Z,101254.60
2023-05-05T17:10:27.227Z,101254.00
2023-05-05T17:15:30.308Z,101253.80
2023-05-05T17:20:34.642Z,101252.80
2023-05-05T17:25:37.582Z,101255.60
2023-05-05T17:30:40.821Z,101266.00
2023-05-05T17:35:47.363Z,101269.60
2023-05-05T17:40:50.682Z,101270.40
2023-05-05T17:45:54.694Z,101272.40
2023-05-05T17:51:00.347Z,101269.60
2023-05-05T17:56:03.456Z,101275.20
2023-05-05T18:01:06.887Z,101280.40
2023-05-05T18:06:10.007Z,101288.00
2023-05-05T18:11:15.528Z,101286.80
2023-05-05T18:16:22.937Z,101293.00
2023-05-05T18:21:27.219Z,101298.20
2023-05-05T18:26:30.907Z,101303.00
2023-05-05T18:31:36.749Z,101302.60
2023-05-05T18:36:39.850Z,101304.20
2023-05-05T18:41:42.925Z,101309.60
2023-05-05T18:46:47.238Z,101313.80
2023-05-05T18:51:50.342Z,101320.80
2023-05-05T18:56:53.460Z,101320.80
2023-05-05T19:02:00.068Z,101325.20
2023-05-05T19:07:03.986Z,101326.80
2023-05-05T19:12:07.255Z,101336.40
2023-05-05T19:17:10.333Z,101330.20
2023-05-05T19:22:13.368Z,101334.60
2023-05-05T19:27:17.129Z,101336.20
2023-05-05T19:32:21.594Z,101335.40
2023-05-05T19:37:24.952Z,101329.00
2023-05-05T19:42:28.990Z,101333.20
2023-05-05T19:47:36.281Z,101327.80
2023-05-05T19:52:42.629Z,101332.00
2023-05-05T19:57:47.001Z,101333.60
2023-05-05T20:02:53.188Z,101335.20
2023-05-05T20:07:58.015Z,101338.20
2023-05-05T20:13:02.542Z,101338.00
2023-05-05T20:18:06.526Z,101327.40
2023-05-05T20:23:14.108Z,101336.60
2023-05-05T20:28:18.130Z,101337.00
2023-05-05T20:33:22.597Z,101334.40
2023-05-05T20:38:26.693Z,101337.00
2023-05-05T20:43:30.905Z,101344.20
2023-05-05T20:48:36.938Z,101353.00
2023-05-05T20:53:44.133Z,101340.40
2023-05-05T20:58:56.830Z,101343.80
2023-05-05T21:04:09.473Z,101346.80
2023-05-05T21:09:12.797Z,101339.80
2023-05-05T21:14:15.941Z,101345.20
2023-05-05T21:19:19.256Z,101348.20
2023-05-05T21:24:22.283Z,101342.00
2023-05-05T21:29:25.998Z,101343.40
2023-05-05T21:34:29.098Z,101343.80
2023-05-05T21:39:33.652Z,101342.40
2023-05-05T21:44:36.658Z,101338.80
2023-05-05T21:49:39.798Z,101338.80
2023-05-05T21:54:42.895Z,101338.40
2023-05-05T21:59:46.675Z,101346.60
2023-05-05T22:04:52.838Z,101345.40
2023-05-05T22:09:55.867Z,101344.40
2023-05-05T22:14:59.161Z,101353.40
2023-05-05T22:20:04.823Z,101342.60
2023-05-05T22:25:08.745Z,101341.20
2023-05-05T22:30:13.100Z,101341.80
2023-05-05T22:35:16.169Z,101346.00
2023-05-05T22:40:19.097Z,101336.00
2023-05-05T22:45:23.205Z,101335.80
2023-05-05T22:50:26.188Z,101335.80
2023-05-05T22:55:29.472Z,101336.60
2023-05-05T23:00:32.873Z,101334.00
2023-05-05T23:05:36.374Z,101341.00
2023-05-05T23:10:39.417Z,101342.20
2023-05-05T23:15:42.576Z,101332.40
2023-05-05T23:20:45.609Z,101333.80
2023-05-05T23:25:52.046Z,101331.20
2023-05-05T23:30:55.172Z,101332.80
2023-05-05T23:35:58.462Z,101326.00
2023-05-05T23:41:04.410Z,101322.20
2023-05-05T23:46:07.480Z,101319.40
2023-05-05T23:51:10.836Z,101312.80
2023-05-05T23:56:14.013Z,101318.40
